sensor_id;sensor_type;location;lat;lon;timestamp;temperature;humidity
20977;DHT22;10647;51.016;3.720;2023-02-28T00:00:27;4.20;95.80
20977;DHT22;10647;51.016;3.720;2023-02-28T00:02:55;4.20;96.00
20977;DHT22;10647;51.016;3.720;2023-02-28T00:05:24;4.20;96.00
20977;DHT22;10647;51.016;3.720;2023-02-28T00:07:54;4.20;96.10
20977;DHT22;10647;51.016;3.720;2023-02-28T00:10:25;4.20;96.00
20977;DHT22;10647;51.016;3.720;2023-02-28T00:12:54;4.20;96.10
20977;DHT22;10647;51.016;3.720;2023-02-28T00:15:24;4.10;96.30
20977;DHT22;10647;51.016;3.720;2023-02-28T00:17:57;4.10;96.30
20977;DHT22;10647;51.016;3.720;2023-02-28T00:20:25;4.10;96.40
20977;DHT22;10647;51.016;3.720;2023-02-28T00:22:58;4.10;96.40
20977;DHT22;10647;51.016;3.720;2023-02-28T00:25:26;4.10;96.50
20977;DHT22;10647;51.016;3.720;2023-02-28T00:27:54;4.10;96.90
20977;DHT22;10647;51.016;3.720;2023-02-28T00:30:41;4.10;96.60
20977;DHT22;10647;51.016;3.720;2023-02-28T00:33:14;4.00;96.80
20977;DHT22;10647;51.016;3.720;2023-02-28T00:35:42;4.00;96.70
20977;DHT22;10647;51.016;3.720;2023-02-28T00:38:12;4.00;96.60
20977;DHT22;10647;51.016;3.720;2023-02-28T00:40:43;4.00;96.90
20977;DHT22;10647;51.016;3.720;2023-02-28T00:43:11;4.00;97.00
20977;DHT22;10647;51.016;3.720;2023-02-28T00:45:38;4.00;97.10
20977;DHT22;10647;51.016;3.720;2023-02-28T00:48:06;4.00;97.20
20977;DHT22;10647;51.016;3.720;2023-02-28T00:50:34;4.00;97.40
20977;DHT22;10647;51.016;3.720;2023-02-28T00:53:02;4.00;97.50
20977;DHT22;10647;51.016;3.720;2023-02-28T00:55:49;3.90;97.50
20977;DHT22;10647;51.016;3.720;2023-02-28T00:58:17;3.90;97.80
20977;DHT22;10647;51.016;3.720;2023-02-28T01:00:45;4.00;97.70
20977;DHT22;10647;51.016;3.720;2023-02-28T01:06:05;3.90;97.80
20977;DHT22;10647;51.016;3.720;2023-02-28T01:08:32;3.90;98.00
20977;DHT22;10647;51.016;3.720;2023-02-28T01:11:17;3.90;98.10
20977;DHT22;10647;51.016;3.720;2023-02-28T01:13:51;3.90;98.50
20977;DHT22;10647;51.016;3.720;2023-02-28T01:16:24;3.90;98.30
20977;DHT22;10647;51.016;3.720;2023-02-28T01:18:53;3.90;98.70
20977;DHT22;10647;51.016;3.720;2023-02-28T01:21:21;3.90;98.50
20977;DHT22;10647;51.016;3.720;2023-02-28T01:23:52;3.90;98.60
20977;DHT22;10647;51.016;3.720;2023-02-28T01:26:21;3.90;98.60
20977;DHT22;10647;51.016;3.720;2023-02-28T01:28:51;3.80;98.70
20977;DHT22;10647;51.016;3.720;2023-02-28T01:31:21;3.80;98.80
20977;DHT22;10647;51.016;3.720;2023-02-28T01:33:49;3.80;98.90
20977;DHT22;10647;51.016;3.720;2023-02-28T01:36:19;3.90;99.10
20977;DHT22;10647;51.016;3.720;2023-02-28T01:38:48;3.80;99.00
20977;DHT22;10647;51.016;3.720;2023-02-28T01:41:19;3.80;99.10
20977;DHT22;10647;51.016;3.720;2023-02-28T01:46:51;3.80;99.40
20977;DHT22;10647;51.016;3.720;2023-02-28T01:49:19;3.70;99.40
20977;DHT22;10647;51.016;3.720;2023-02-28T01:52:06;3.70;99.50
20977;DHT22;10647;51.016;3.720;2023-02-28T01:54:35;3.70;99.70
20977;DHT22;10647;51.016;3.720;2023-02-28T01:57:15;3.70;99.70
20977;DHT22;10647;51.016;3.720;2023-02-28T01:59:54;3.70;99.80
20977;DHT22;10647;51.016;3.720;2023-02-28T02:02:31;3.70;99.70
20977;DHT22;10647;51.016;3.720;2023-02-28T02:05:03;3.60;99.80
20977;DHT22;10647;51.016;3.720;2023-02-28T02:07:32;3.60;99.90
20977;DHT22;10647;51.016;3.720;2023-02-28T02:10:04;3.50;99.90
20977;DHT22;10647;51.016;3.720;2023-02-28T02:12:47;3.50;99.90
20977;DHT22;10647;51.016;3.720;2023-02-28T02:15:21;3.50;99.90
20977;DHT22;10647;51.016;3.720;2023-02-28T02:21:08;3.50;99.90
20977;DHT22;10647;51.016;3.720;2023-02-28T02:26:28;3.40;99.90
20977;DHT22;10647;51.016;3.720;2023-02-28T02:29:02;3.40;99.90
20977;DHT22;10647;51.016;3.720;2023-02-28T02:43:13;3.30;99.90
20977;DHT22;10647;51.016;3.720;2023-02-28T02:45:51;3.30;99.90
20977;DHT22;10647;51.016;3.720;2023-02-28T02:48:21;3.30;99.90
20977;DHT22;10647;51.016;3.720;2023-02-28T02:50:55;3.30;99.90
20977;DHT22;10647;51.016;3.720;2023-02-28T02:53:23;3.30;99.90
20977;DHT22;10647;51.016;3.720;2023-02-28T02:55:52;3.30;99.90
20977;DHT22;10647;51.016;3.720;2023-02-28T03:01:03;3.30;99.90
20977;DHT22;10647;51.016;3.720;2023-02-28T03:03:33;3.30;99.90
20977;DHT22;10647;51.016;3.720;2023-02-28T03:06:02;3.30;99.90
20977;DHT22;10647;51.016;3.720;2023-02-28T03:08:35;3.30;99.90
20977;DHT22;10647;51.016;3.720;2023-02-28T03:11:11;3.20;99.90
20977;DHT22;10647;51.016;3.720;2023-02-28T03:13:50;3.20;99.90
20977;DHT22;10647;51.016;3.720;2023-02-28T03:16:35;3.20;99.90
20977;DHT22;10647;51.016;3.720;2023-02-28T03:19:31;3.20;99.90
20977;DHT22;10647;51.016;3.720;2023-02-28T03:22:45;3.20;99.90
20977;DHT22;10647;51.016;3.720;2023-02-28T03:24:54;3.10;99.90
20977;DHT22;10647;51.016;3.720;2023-02-28T03:27:25;3.10;99.90
20977;DHT22;10647;51.016;3.720;2023-02-28T03:33:08;3.10;99.90
20977;DHT22;10647;51.016;3.720;2023-02-28T03:35:43;3.10;99.90
20977;DHT22;10647;51.016;3.720;2023-02-28T03:41:16;3.20;99.90
20977;DHT22;10647;51.016;3.720;2023-02-28T03:43:56;3.20;99.90
20977;DHT22;10647;51.016;3.720;2023-02-28T03:46:55;3.20;99.90
20977;DHT22;10647;51.016;3.720;2023-02-28T03:49:35;3.20;99.90
20977;DHT22;10647;51.016;3.720;2023-02-28T03:52:06;3.30;99.90
20977;DHT22;10647;51.016;3.720;2023-02-28T03:54:46;3.30;99.90
20977;DHT22;10647;51.016;3.720;2023-02-28T03:57:30;3.30;99.90
20977;DHT22;10647;51.016;3.720;2023-02-28T04:00:43;3.40;99.90
20977;DHT22;10647;51.016;3.720;2023-02-28T04:03:09;3.50;99.90
20977;DHT22;10647;51.016;3.720;2023-02-28T04:05:56;3.60;99.90
20977;DHT22;10647;51.016;3.720;2023-02-28T04:08:12;3.70;99.90
20977;DHT22;10647;51.016;3.720;2023-02-28T04:10:43;3.80;99.90
20977;DHT22;10647;51.016;3.720;2023-02-28T04:13:12;3.90;99.90
20977;DHT22;10647;51.016;3.720;2023-02-28T04:15:41;3.90;99.90
20977;DHT22;10647;51.016;3.720;2023-02-28T04:18:08;3.90;99.90
20977;DHT22;10647;51.016;3.720;2023-02-28T04:20:38;4.00;99.90
20977;DHT22;10647;51.016;3.720;2023-02-28T04:23:06;4.10;99.90
20977;DHT22;10647;51.016;3.720;2023-02-28T04:25:33;4.20;99.90
20977;DHT22;10647;51.016;3.720;2023-02-28T04:28:01;4.20;99.90
20977;DHT22;10647;51.016;3.720;2023-02-28T04:30:30;4.30;99.90
20977;DHT22;10647;51.016;3.720;2023-02-28T04:32:59;4.30;99.90
20977;DHT22;10647;51.016;3.720;2023-02-28T04:35:30;4.40;99.90
20977;DHT22;10647;51.016;3.720;2023-02-28T04:37:57;4.40;99.90
20977;DHT22;10647;51.016;3.720;2023-02-28T04:40:28;4.50;99.90
20977;DHT22;10647;51.016;3.720;2023-02-28T04:42:58;4.50;99.90
20977;DHT22;10647;51.016;3.720;2023-02-28T04:45:28;4.50;99.90
20977;DHT22;10647;51.016;3.720;2023-02-28T04:47:58;4.50;99.90
20977;DHT22;10647;51.016;3.720;2023-02-28T04:50:25;4.50;99.90
20977;DHT22;10647;51.016;3.720;2023-02-28T04:52:56;4.50;99.90
20977;DHT22;10647;51.016;3.720;2023-02-28T04:55:24;4.60;99.90
20977;DHT22;10647;51.016;3.720;2023-02-28T04:57:52;4.60;99.90
20977;DHT22;10647;51.016;3.720;2023-02-28T05:00:22;4.60;99.90
20977;DHT22;10647;51.016;3.720;2023-02-28T05:02:50;4.60;99.90
20977;DHT22;10647;51.016;3.720;2023-02-28T05:05:17;4.70;99.90
20977;DHT22;10647;51.016;3.720;2023-02-28T05:07:45;4.70;99.90
20977;DHT22;10647;51.016;3.720;2023-02-28T05:10:13;4.70;99.90
20977;DHT22;10647;51.016;3.720;2023-02-28T05:12:40;4.70;99.90
20977;DHT22;10647;51.016;3.720;2023-02-28T05:15:12;4.80;99.90
20977;DHT22;10647;51.016;3.720;2023-02-28T05:17:41;4.80;99.90
20977;DHT22;10647;51.016;3.720;2023-02-28T05:20:18;4.80;99.90
20977;DHT22;10647;51.016;3.720;2023-02-28T05:22:49;4.80;99.90
20977;DHT22;10647;51.016;3.720;2023-02-28T05:25:20;4.80;99.90
20977;DHT22;10647;51.016;3.720;2023-02-28T05:27:51;4.90;99.90
20977;DHT22;10647;51.016;3.720;2023-02-28T05:30:20;4.90;99.90
20977;DHT22;10647;51.016;3.720;2023-02-28T05:32:50;4.90;99.90
20977;DHT22;10647;51.016;3.720;2023-02-28T05:35:40;5.00;99.90
20977;DHT22;10647;51.016;3.720;2023-02-28T05:38:11;5.00;99.90
20977;DHT22;10647;51.016;3.720;2023-02-28T05:40:39;5.00;99.90
20977;DHT22;10647;51.016;3.720;2023-02-28T05:43:10;5.00;99.90
20977;DHT22;10647;51.016;3.720;2023-02-28T05:45:38;5.00;99.90
20977;DHT22;10647;51.016;3.720;2023-02-28T05:48:05;5.00;99.90
20977;DHT22;10647;51.016;3.720;2023-02-28T05:50:33;5.10;99.90
20977;DHT22;10647;51.016;3.720;2023-02-28T05:53:06;5.10;99.90
20977;DHT22;10647;51.016;3.720;2023-02-28T05:55:36;5.10;99.90
20977;DHT22;10647;51.016;3.720;2023-02-28T05:58:10;5.20;99.90
20977;DHT22;10647;51.016;3.720;2023-02-28T06:00:37;5.10;99.90
20977;DHT22;10647;51.016;3.720;2023-02-28T06:03:04;5.10;99.90
20977;DHT22;10647;51.016;3.720;2023-02-28T06:05:32;5.10;99.90
20977;DHT22;10647;51.016;3.720;2023-02-28T06:08:00;5.10;99.90
20977;DHT22;10647;51.016;3.720;2023-02-28T06:10:27;5.10;99.90
20977;DHT22;10647;51.016;3.720;2023-02-28T06:12:55;5.20;99.90
20977;DHT22;10647;51.016;3.720;2023-02-28T06:15:22;5.20;99.90
20977;DHT22;10647;51.016;3.720;2023-02-28T06:17:50;5.20;99.90
20977;DHT22;10647;51.016;3.720;2023-02-28T06:20:18;5.30;99.90
20977;DHT22;10647;51.016;3.720;2023-02-28T06:22:46;5.30;99.90
20977;DHT22;10647;51.016;3.720;2023-02-28T06:25:13;5.30;99.90
20977;DHT22;10647;51.016;3.720;2023-02-28T06:27:41;5.30;99.90
20977;DHT22;10647;51.016;3.720;2023-02-28T06:30:10;5.30;99.90
20977;DHT22;10647;51.016;3.720;2023-02-28T06:32:41;5.30;99.90
20977;DHT22;10647;51.016;3.720;2023-02-28T06:35:12;5.30;99.90
20977;DHT22;10647;51.016;3.720;2023-02-28T06:37:40;5.30;99.90
20977;DHT22;10647;51.016;3.720;2023-02-28T06:40:09;5.40;99.90
20977;DHT22;10647;51.016;3.720;2023-02-28T06:42:36;5.40;99.90
20977;DHT22;10647;51.016;3.720;2023-02-28T06:45:04;5.40;99.90
20977;DHT22;10647;51.016;3.720;2023-02-28T06:47:34;5.40;99.90
20977;DHT22;10647;51.016;3.720;2023-02-28T06:50:03;5.50;99.90
20977;DHT22;10647;51.016;3.720;2023-02-28T06:52:32;5.50;99.90
20977;DHT22;10647;51.016;3.720;2023-02-28T06:55:01;5.50;99.90
20977;DHT22;10647;51.016;3.720;2023-02-28T06:57:30;5.50;99.90
20977;DHT22;10647;51.016;3.720;2023-02-28T06:59:59;5.60;99.90
20977;DHT22;10647;51.016;3.720;2023-02-28T07:02:31;5.60;99.90
20977;DHT22;10647;51.016;3.720;2023-02-28T07:04:59;5.60;99.90
20977;DHT22;10647;51.016;3.720;2023-02-28T07:07:33;5.70;99.90
20977;DHT22;10647;51.016;3.720;2023-02-28T07:10:03;5.70;99.90
20977;DHT22;10647;51.016;3.720;2023-02-28T07:12:31;5.70;99.90
20977;DHT22;10647;51.016;3.720;2023-02-28T07:14:59;5.80;99.90
20977;DHT22;10647;51.016;3.720;2023-02-28T07:17:27;5.70;99.90
20977;DHT22;10647;51.016;3.720;2023-02-28T07:19:55;5.80;99.90
20977;DHT22;10647;51.016;3.720;2023-02-28T07:22:23;5.80;99.90
20977;DHT22;10647;51.016;3.720;2023-02-28T07:24:51;5.90;99.90
20977;DHT22;10647;51.016;3.720;2023-02-28T07:27:18;6.00;99.90
20977;DHT22;10647;51.016;3.720;2023-02-28T07:29:48;6.00;99.90
20977;DHT22;10647;51.016;3.720;2023-02-28T07:32:15;6.00;99.90
20977;DHT22;10647;51.016;3.720;2023-02-28T07:34:43;6.10;99.90
20977;DHT22;10647;51.016;3.720;2023-02-28T07:37:10;6.10;99.90
20977;DHT22;10647;51.016;3.720;2023-02-28T07:39:38;6.20;99.90
20977;DHT22;10647;51.016;3.720;2023-02-28T07:42:07;6.30;99.90
20977;DHT22;10647;51.016;3.720;2023-02-28T07:44:36;6.40;99.90
20977;DHT22;10647;51.016;3.720;2023-02-28T07:47:11;6.50;99.90
20977;DHT22;10647;51.016;3.720;2023-02-28T07:49:39;6.60;99.90
20977;DHT22;10647;51.016;3.720;2023-02-28T07:52:07;6.70;99.90
20977;DHT22;10647;51.016;3.720;2023-02-28T07:54:35;6.80;99.90
20977;DHT22;10647;51.016;3.720;2023-02-28T07:57:22;6.90;99.90
20977;DHT22;10647;51.016;3.720;2023-02-28T07:59:49;6.90;99.90
20977;DHT22;10647;51.016;3.720;2023-02-28T08:02:18;7.00;99.90
20977;DHT22;10647;51.016;3.720;2023-02-28T08:04:49;7.00;99.90
20977;DHT22;10647;51.016;3.720;2023-02-28T08:07:20;7.00;99.90
20977;DHT22;10647;51.016;3.720;2023-02-28T08:09:47;7.10;99.90
20977;DHT22;10647;51.016;3.720;2023-02-28T08:12:15;7.30;99.90
20977;DHT22;10647;51.016;3.720;2023-02-28T08:14:42;7.40;99.90
20977;DHT22;10647;51.016;3.720;2023-02-28T08:17:11;7.60;99.90
20977;DHT22;10647;51.016;3.720;2023-02-28T08:19:39;7.80;99.90
20977;DHT22;10647;51.016;3.720;2023-02-28T08:22:06;8.10;99.90
20977;DHT22;10647;51.016;3.720;2023-02-28T08:24:34;8.20;99.90
20977;DHT22;10647;51.016;3.720;2023-02-28T08:27:01;8.40;99.90
20977;DHT22;10647;51.016;3.720;2023-02-28T08:29:29;8.40;99.90
20977;DHT22;10647;51.016;3.720;2023-02-28T08:31:56;8.60;99.90
20977;DHT22;10647;51.016;3.720;2023-02-28T08:34:25;8.60;99.90
20977;DHT22;10647;51.016;3.720;2023-02-28T08:36:52;8.80;99.90
20977;DHT22;10647;51.016;3.720;2023-02-28T08:39:21;8.80;99.90
20977;DHT22;10647;51.016;3.720;2023-02-28T08:41:48;8.80;99.90
20977;DHT22;10647;51.016;3.720;2023-02-28T08:44:16;8.90;99.90
20977;DHT22;10647;51.016;3.720;2023-02-28T08:46:43;9.00;99.90
20977;DHT22;10647;51.016;3.720;2023-02-28T08:49:12;8.90;99.40
20977;DHT22;10647;51.016;3.720;2023-02-28T08:51:39;8.80;99.10
20977;DHT22;10647;51.016;3.720;2023-02-28T08:54:07;8.70;99.10
20977;DHT22;10647;51.016;3.720;2023-02-28T08:56:37;8.70;99.00
20977;DHT22;10647;51.016;3.720;2023-02-28T08:59:05;8.70;98.70
20977;DHT22;10647;51.016;3.720;2023-02-28T09:01:33;8.60;98.50
20977;DHT22;10647;51.016;3.720;2023-02-28T09:04:01;8.70;98.40
20977;DHT22;10647;51.016;3.720;2023-02-28T09:06:29;8.60;98.30
20977;DHT22;10647;51.016;3.720;2023-02-28T09:08:57;8.60;98.30
20977;DHT22;10647;51.016;3.720;2023-02-28T09:11:28;8.60;98.00
20977;DHT22;10647;51.016;3.720;2023-02-28T09:13:55;8.50;97.60
20977;DHT22;10647;51.016;3.720;2023-02-28T09:16:23;8.40;97.50
20977;DHT22;10647;51.016;3.720;2023-02-28T09:18:50;8.40;97.40
20977;DHT22;10647;51.016;3.720;2023-02-28T09:21:19;8.40;97.40
20977;DHT22;10647;51.016;3.720;2023-02-28T09:23:48;8.40;97.10
20977;DHT22;10647;51.016;3.720;2023-02-28T09:26:22;8.50;97.00
20977;DHT22;10647;51.016;3.720;2023-02-28T09:28:50;8.40;96.60
20977;DHT22;10647;51.016;3.720;2023-02-28T09:31:23;8.50;96.60
20977;DHT22;10647;51.016;3.720;2023-02-28T09:36:44;8.50;95.80
20977;DHT22;10647;51.016;3.720;2023-02-28T09:39:12;8.50;95.70
20977;DHT22;10647;51.016;3.720;2023-02-28T09:41:44;8.50;95.40
20977;DHT22;10647;51.016;3.720;2023-02-28T09:44:29;8.40;95.60
20977;DHT22;10647;51.016;3.720;2023-02-28T09:46:59;8.30;95.00
20977;DHT22;10647;51.016;3.720;2023-02-28T09:49:38;8.40;94.70
20977;DHT22;10647;51.016;3.720;2023-02-28T09:52:13;8.40;94.50
20977;DHT22;10647;51.016;3.720;2023-02-28T09:54:37;8.60;94.50
20977;DHT22;10647;51.016;3.720;2023-02-28T09:57:24;8.60;94.20
20977;DHT22;10647;51.016;3.720;2023-02-28T09:59:59;8.70;94.10
20977;DHT22;10647;51.016;3.720;2023-02-28T10:02:47;8.70;93.80
20977;DHT22;10647;51.016;3.720;2023-02-28T10:05:17;8.80;93.70
20977;DHT22;10647;51.016;3.720;2023-02-28T10:07:52;8.90;93.60
20977;DHT22;10647;51.016;3.720;2023-02-28T10:10:41;9.00;93.60
20977;DHT22;10647;51.016;3.720;2023-02-28T10:13:24;9.10;93.30
20977;DHT22;10647;51.016;3.720;2023-02-28T10:16:19;9.10;92.90
20977;DHT22;10647;51.016;3.720;2023-02-28T10:18:46;9.00;92.70
20977;DHT22;10647;51.016;3.720;2023-02-28T10:21:26;9.00;92.40
20977;DHT22;10647;51.016;3.720;2023-02-28T10:23:56;9.30;92.70
20977;DHT22;10647;51.016;3.720;2023-02-28T10:26:24;9.60;92.20
20977;DHT22;10647;51.016;3.720;2023-02-28T10:28:53;10.10;91.90
20977;DHT22;10647;51.016;3.720;2023-02-28T10:31:21;10.20;91.60
20977;DHT22;10647;51.016;3.720;2023-02-28T10:33:48;10.40;91.50
20977;DHT22;10647;51.016;3.720;2023-02-28T10:36:19;10.60;90.60
20977;DHT22;10647;51.016;3.720;2023-02-28T10:38:48;10.70;90.20
20977;DHT22;10647;51.016;3.720;2023-02-28T10:44:14;10.70;89.10
20977;DHT22;10647;51.016;3.720;2023-02-28T10:46:42;10.90;88.70
20977;DHT22;10647;51.016;3.720;2023-02-28T10:49:29;11.00;88.10
20977;DHT22;10647;51.016;3.720;2023-02-28T10:51:59;11.20;86.30
20977;DHT22;10647;51.016;3.720;2023-02-28T10:54:33;11.40;85.70
20977;DHT22;10647;51.016;3.720;2023-02-28T10:57:22;11.70;83.90
20977;DHT22;10647;51.016;3.720;2023-02-28T10:59:53;11.80;80.80
20977;DHT22;10647;51.016;3.720;2023-02-28T11:02:36;12.00;79.20
20977;DHT22;10647;51.016;3.720;2023-02-28T11:05:28;12.10;79.10
20977;DHT22;10647;51.016;3.720;2023-02-28T11:08:15;12.00;78.20
20977;DHT22;10647;51.016;3.720;2023-02-28T11:10:48;11.60;78.00
20977;DHT22;10647;51.016;3.720;2023-02-28T11:13:32;11.10;78.20
20977;DHT22;10647;51.016;3.720;2023-02-28T11:16:03;10.80;78.70
20977;DHT22;10647;51.016;3.720;2023-02-28T11:18:54;10.60;79.00
20977;DHT22;10647;51.016;3.720;2023-02-28T11:21:35;10.60;79.40
20977;DHT22;10647;51.016;3.720;2023-02-28T11:24:24;10.70;79.50
20977;DHT22;10647;51.016;3.720;2023-02-28T11:26:52;10.80;79.70
20977;DHT22;10647;51.016;3.720;2023-02-28T11:29:24;11.00;80.20
20977;DHT22;10647;51.016;3.720;2023-02-28T11:32:19;11.00;79.30
20977;DHT22;10647;51.016;3.720;2023-02-28T11:34:43;10.90;79.30
20977;DHT22;10647;51.016;3.720;2023-02-28T11:37:18;10.40;78.90
20977;DHT22;10647;51.016;3.720;2023-02-28T11:39:46;10.20;79.10
20977;DHT22;10647;51.016;3.720;2023-02-28T11:45:24;10.10;79.30
20977;DHT22;10647;51.016;3.720;2023-02-28T11:50:59;10.10;79.10
20977;DHT22;10647;51.016;3.720;2023-02-28T11:53:59;10.00;78.10
20977;DHT22;10647;51.016;3.720;2023-02-28T12:00:19;10.00;78.70
20977;DHT22;10647;51.016;3.720;2023-02-28T12:03:15;10.00;77.90
20977;DHT22;10647;51.016;3.720;2023-02-28T12:11:51;9.80;76.60
20977;DHT22;10647;51.016;3.720;2023-02-28T12:14:46;9.90;76.60
20977;DHT22;10647;51.016;3.720;2023-02-28T12:26:43;9.80;74.60
20977;DHT22;10647;51.016;3.720;2023-02-28T12:28:46;9.70;74.50
20977;DHT22;10647;51.016;3.720;2023-02-28T12:31:24;9.80;74.80
20977;DHT22;10647;51.016;3.720;2023-02-28T12:33:56;9.80;74.50
20977;DHT22;10647;51.016;3.720;2023-02-28T12:36:23;9.90;74.10
20977;DHT22;10647;51.016;3.720;2023-02-28T12:39:08;9.80;73.50
20977;DHT22;10647;51.016;3.720;2023-02-28T12:41:56;9.80;73.20
20977;DHT22;10647;51.016;3.720;2023-02-28T12:47:23;9.70;71.70
20977;DHT22;10647;51.016;3.720;2023-02-28T12:50:03;9.80;71.80
20977;DHT22;10647;51.016;3.720;2023-02-28T12:52:54;9.80;71.60
20977;DHT22;10647;51.016;3.720;2023-02-28T12:55:56;9.90;71.60
20977;DHT22;10647;51.016;3.720;2023-02-28T12:58:34;9.80;71.10
20977;DHT22;10647;51.016;3.720;2023-02-28T13:01:06;9.80;71.10
20977;DHT22;10647;51.016;3.720;2023-02-28T13:06:57;9.80;70.60
20977;DHT22;10647;51.016;3.720;2023-02-28T13:09:21;9.80;70.10
20977;DHT22;10647;51.016;3.720;2023-02-28T13:11:51;10.20;69.60
20977;DHT22;10647;51.016;3.720;2023-02-28T13:14:25;12.90;68.20
20977;DHT22;10647;51.016;3.720;2023-02-28T13:19:44;17.10;61.70
20977;DHT22;10647;51.016;3.720;2023-02-28T13:24:57;19.50;57.20
20977;DHT22;10647;51.016;3.720;2023-02-28T13:27:38;20.40;54.50
20977;DHT22;10647;51.016;3.720;2023-02-28T13:31:00;20.70;50.80
20977;DHT22;10647;51.016;3.720;2023-02-28T13:33:22;21.20;49.80
20977;DHT22;10647;51.016;3.720;2023-02-28T13:38:48;21.90;46.20
20977;DHT22;10647;51.016;3.720;2023-02-28T13:49:27;23.30;44.50
20977;DHT22;10647;51.016;3.720;2023-02-28T14:04:14;24.40;40.80
20977;DHT22;10647;51.016;3.720;2023-02-28T14:06:58;24.40;40.40
20977;DHT22;10647;51.016;3.720;2023-02-28T14:09:36;24.40;39.80
20977;DHT22;10647;51.016;3.720;2023-02-28T14:17:43;24.60;39.80
20977;DHT22;10647;51.016;3.720;2023-02-28T14:23:43;24.90;39.10
20977;DHT22;10647;51.016;3.720;2023-02-28T14:37:41;24.90;38.10
20977;DHT22;10647;51.016;3.720;2023-02-28T14:40:21;24.90;37.50
20977;DHT22;10647;51.016;3.720;2023-02-28T14:43:04;25.10;37.40
20977;DHT22;10647;51.016;3.720;2023-02-28T14:50:58;24.90;37.60
20977;DHT22;10647;51.016;3.720;2023-02-28T14:53:29;24.70;36.90
20977;DHT22;10647;51.016;3.720;2023-02-28T14:55:57;24.30;36.80
20977;DHT22;10647;51.016;3.720;2023-02-28T14:58:29;24.20;37.00
20977;DHT22;10647;51.016;3.720;2023-02-28T15:00:59;23.90;36.90
20977;DHT22;10647;51.016;3.720;2023-02-28T15:03:38;23.70;37.10
20977;DHT22;10647;51.016;3.720;2023-02-28T15:06:17;23.40;37.30
20977;DHT22;10647;51.016;3.720;2023-02-28T15:08:47;23.30;37.60
20977;DHT22;10647;51.016;3.720;2023-02-28T15:11:17;23.20;37.60
20977;DHT22;10647;51.016;3.720;2023-02-28T15:13:48;23.40;37.90
20977;DHT22;10647;51.016;3.720;2023-02-28T15:16:31;23.50;38.00
20977;DHT22;10647;51.016;3.720;2023-02-28T15:21:41;23.30;38.50
20977;DHT22;10647;51.016;3.720;2023-02-28T15:26:39;22.20;38.40
20977;DHT22;10647;51.016;3.720;2023-02-28T15:29:14;21.60;39.10
20977;DHT22;10647;51.016;3.720;2023-02-28T15:31:49;21.10;39.40
20977;DHT22;10647;51.016;3.720;2023-02-28T15:34:19;20.70;39.80
20977;DHT22;10647;51.016;3.720;2023-02-28T15:36:51;20.00;40.10
20977;DHT22;10647;51.016;3.720;2023-02-28T15:39:21;19.10;40.70
20977;DHT22;10647;51.016;3.720;2023-02-28T15:41:49;18.20;41.80
20977;DHT22;10647;51.016;3.720;2023-02-28T15:49:58;15.90;44.80
20977;DHT22;10647;51.016;3.720;2023-02-28T15:52:43;15.20;45.80
20977;DHT22;10647;51.016;3.720;2023-02-28T15:55:28;14.50;46.60
20977;DHT22;10647;51.016;3.720;2023-02-28T15:58:00;13.80;48.00
20977;DHT22;10647;51.016;3.720;2023-02-28T16:00:28;13.30;49.00
20977;DHT22;10647;51.016;3.720;2023-02-28T16:02:56;13.10;50.10
20977;DHT22;10647;51.016;3.720;2023-02-28T16:05:30;12.90;50.20
20977;DHT22;10647;51.016;3.720;2023-02-28T16:08:12;12.80;50.90
20977;DHT22;10647;51.016;3.720;2023-02-28T16:10:55;12.70;51.20
20977;DHT22;10647;51.016;3.720;2023-02-28T16:13:22;12.60;51.60
20977;DHT22;10647;51.016;3.720;2023-02-28T16:15:53;12.60;52.00
20977;DHT22;10647;51.016;3.720;2023-02-28T16:18:20;12.70;52.20
20977;DHT22;10647;51.016;3.720;2023-02-28T16:20:48;12.70;52.30
20977;DHT22;10647;51.016;3.720;2023-02-28T16:23:17;12.70;52.60
20977;DHT22;10647;51.016;3.720;2023-02-28T16:25:47;12.60;52.50
20977;DHT22;10647;51.016;3.720;2023-02-28T16:28:35;12.60;52.60
20977;DHT22;10647;51.016;3.720;2023-02-28T16:31:05;12.50;53.30
20977;DHT22;10647;51.016;3.720;2023-02-28T16:33:33;12.20;53.00
20977;DHT22;10647;51.016;3.720;2023-02-28T16:36:01;11.80;53.50
20977;DHT22;10647;51.016;3.720;2023-02-28T16:38:28;11.50;54.00
20977;DHT22;10647;51.016;3.720;2023-02-28T16:40:59;11.20;54.50
20977;DHT22;10647;51.016;3.720;2023-02-28T16:43:27;11.00;55.10
20977;DHT22;10647;51.016;3.720;2023-02-28T16:45:56;10.80;55.40
20977;DHT22;10647;51.016;3.720;2023-02-28T16:48:29;10.50;55.80
20977;DHT22;10647;51.016;3.720;2023-02-28T16:50:57;10.40;56.20
20977;DHT22;10647;51.016;3.720;2023-02-28T16:53:24;10.20;56.40
20977;DHT22;10647;51.016;3.720;2023-02-28T16:55:52;10.00;56.60
20977;DHT22;10647;51.016;3.720;2023-02-28T16:58:20;9.80;57.40
20977;DHT22;10647;51.016;3.720;2023-02-28T17:00:49;9.80;57.70
20977;DHT22;10647;51.016;3.720;2023-02-28T17:03:23;9.60;57.90
20977;DHT22;10647;51.016;3.720;2023-02-28T17:05:51;9.50;58.40
20977;DHT22;10647;51.016;3.720;2023-02-28T17:08:19;9.40;58.80
20977;DHT22;10647;51.016;3.720;2023-02-28T17:10:47;9.20;59.20
20977;DHT22;10647;51.016;3.720;2023-02-28T17:13:25;9.10;59.50
20977;DHT22;10647;51.016;3.720;2023-02-28T17:15:55;9.00;59.70
20977;DHT22;10647;51.016;3.720;2023-02-28T17:18:22;8.90;60.10
20977;DHT22;10647;51.016;3.720;2023-02-28T17:20:50;8.80;60.60
20977;DHT22;10647;51.016;3.720;2023-02-28T17:23:18;8.70;60.90
20977;DHT22;10647;51.016;3.720;2023-02-28T17:25:45;8.60;60.90
20977;DHT22;10647;51.016;3.720;2023-02-28T17:28:14;8.50;61.20
20977;DHT22;10647;51.016;3.720;2023-02-28T17:30:43;8.40;61.40
20977;DHT22;10647;51.016;3.720;2023-02-28T17:33:18;8.40;61.60
20977;DHT22;10647;51.016;3.720;2023-02-28T17:35:46;8.30;61.90
20977;DHT22;10647;51.016;3.720;2023-02-28T17:38:18;8.20;62.40
20977;DHT22;10647;51.016;3.720;2023-02-28T17:40:54;8.10;62.60
20977;DHT22;10647;51.016;3.720;2023-02-28T17:43:26;8.00;62.80
20977;DHT22;10647;51.016;3.720;2023-02-28T17:45:55;7.90;63.10
20977;DHT22;10647;51.016;3.720;2023-02-28T17:48:23;7.90;63.30
20977;DHT22;10647;51.016;3.720;2023-02-28T17:50:50;7.80;63.70
20977;DHT22;10647;51.016;3.720;2023-02-28T17:53:21;7.70;64.00
20977;DHT22;10647;51.016;3.720;2023-02-28T17:55:50;7.70;64.30
20977;DHT22;10647;51.016;3.720;2023-02-28T17:58:17;7.60;64.60
20977;DHT22;10647;51.016;3.720;2023-02-28T18:00:45;7.60;64.90
20977;DHT22;10647;51.016;3.720;2023-02-28T18:03:14;7.50;65.20
20977;DHT22;10647;51.016;3.720;2023-02-28T18:05:41;7.50;65.40
20977;DHT22;10647;51.016;3.720;2023-02-28T18:08:10;7.40;65.50
20977;DHT22;10647;51.016;3.720;2023-02-28T18:10:39;7.40;65.70
20977;DHT22;10647;51.016;3.720;2023-02-28T18:13:07;7.30;66.00
20977;DHT22;10647;51.016;3.720;2023-02-28T18:15:34;7.20;66.20
20977;DHT22;10647;51.016;3.720;2023-02-28T18:18:02;7.20;66.30
20977;DHT22;10647;51.016;3.720;2023-02-28T18:20:30;7.10;66.40
20977;DHT22;10647;51.016;3.720;2023-02-28T18:22:57;7.10;66.60
20977;DHT22;10647;51.016;3.720;2023-02-28T18:25:25;7.00;66.80
20977;DHT22;10647;51.016;3.720;2023-02-28T18:27:53;7.00;66.90